Time;durP1;ratioP1;P1;durP2;ratioP2;P2;SDS_P1;SDS_P2;PMS_P1;PMS_P2;Temp;Humidity;BMP_temperature;BMP_pressure;BME280_temperature;BME280_humidity;BME280_pressure;Samples;Min_cycle;Max_cycle;Signal;HPM_P1;HPM_P2
2021/09/23 00:00:18;;;;;;;26.52;15.95;;;;;;;13.77;70.86;102195.47;5036274;28;20099;-64
2021/09/23 00:05:14;;;;;;;28.38;15.82;;;;;;;13.76;71.01;102193.84;5036457;28;20067;-64
2021/09/23 00:07:40;;;;;;;29.08;16.63;;;;;;;13.67;71.64;102206.09;5035851;28;20136;-63
2021/09/23 00:10:08;;;;;;;32.00;16.25;;;;;;;13.63;71.85;102204.00;5035854;28;20018;-64
2021/09/23 00:12:34;;;;;;;27.90;16.25;;;;;;;13.64;71.42;102193.44;5036022;28;20104;-63
2021/09/23 00:14:59;;;;;;;26.17;16.75;;;;;;;13.71;71.02;102189.16;5035991;28;20064;-63
2021/09/23 00:17:24;;;;;;;29.02;15.98;;;;;;;13.65;71.24;102182.06;5035493;28;20029;-64
2021/09/23 00:19:50;;;;;;;34.00;16.55;;;;;;;13.65;70.96;102176.88;5018119;28;20468;-63
2021/09/23 00:22:15;;;;;;;28.48;16.25;;;;;;;13.65;71.30;102173.47;5035836;28;20104;-64
2021/09/23 00:24:41;;;;;;;40.25;17.13;;;;;;;13.58;71.59;102185.53;5018189;28;20028;-64
2021/09/23 00:27:06;;;;;;;29.40;16.40;;;;;;;13.55;71.78;102181.47;5036227;28;20048;-63
2021/09/23 00:29:31;;;;;;;28.13;16.98;;;;;;;13.50;71.98;102184.59;5035391;28;20494;-63
2021/09/23 00:31:56;;;;;;;33.97;17.08;;;;;;;13.60;71.31;102179.19;5035267;28;20036;-64
2021/09/23 00:34:22;;;;;;;33.28;16.48;;;;;;;13.53;71.84;102170.47;5017584;28;20112;-63
2021/09/23 00:36:47;;;;;;;32.25;17.52;;;;;;;13.50;72.04;102171.63;5035258;28;20033;-63
2021/09/23 00:39:12;;;;;;;31.70;17.63;;;;;;;13.49;72.17;102167.41;5017446;28;20388;-64
2021/09/23 00:41:37;;;;;;;30.67;18.00;;;;;;;13.44;72.06;102174.09;5017281;28;20075;-64
2021/09/23 00:44:20;;;;;;;35.35;17.67;;;;;;;13.47;71.99;102169.38;5017370;28;20054;-63
2021/09/23 00:46:48;;;;;;;30.95;17.55;;;;;;;13.43;72.04;102160.28;5035285;28;20039;-63
2021/09/23 00:49:13;;;;;;;29.80;17.40;;;;;;;13.48;72.06;102158.00;5017216;28;20021;-63
2021/09/23 00:51:39;;;;;;;32.53;18.65;;;;;;;13.42;72.52;102156.09;5017117;28;20491;-63
2021/09/23 00:54:05;;;;;;;32.00;17.17;;;;;;;13.37;72.67;102163.56;5034988;28;20033;-64
2021/09/23 00:56:31;;;;;;;32.72;18.27;;;;;;;13.29;73.06;102158.44;5034738;28;20153;-63
2021/09/23 00:58:57;;;;;;;36.58;18.25;;;;;;;13.33;72.56;102157.13;5034865;28;20033;-63
2021/09/23 01:01:23;;;;;;;33.50;17.60;;;;;;;13.35;72.39;102154.34;5034816;28;20491;-64
2021/09/23 01:03:48;;;;;;;30.70;17.75;;;;;;;13.29;72.73;102143.69;5016998;28;20539;-63
2021/09/23 01:06:14;;;;;;;29.63;17.52;;;;;;;13.26;72.84;102141.44;5034662;28;20026;-63
2021/09/23 01:08:39;;;;;;;32.53;18.95;;;;;;;13.28;72.82;102141.25;5016870;28;20017;-64
2021/09/23 01:11:06;;;;;;;30.60;17.15;;;;;;;13.31;73.51;102146.09;5016760;28;20099;-63
2021/09/23 01:13:32;;;;;;;32.38;18.15;;;;;;;13.22;73.22;102132.31;5016853;28;20361;-63
2021/09/23 01:15:57;;;;;;;34.72;19.23;;;;;;;13.28;72.96;102133.47;5034471;28;20029;-64
2021/09/23 01:18:23;;;;;;;31.13;17.20;;;;;;;13.31;72.59;102133.91;5034562;28;20467;-63
2021/09/23 01:20:49;;;;;;;30.92;17.00;;;;;;;13.37;72.56;102135.00;5016737;28;20029;-63
2021/09/23 01:23:15;;;;;;;31.95;17.40;;;;;;;13.35;72.91;102126.63;5034376;28;20031;-63
2021/09/23 01:25:40;;;;;;;28.35;17.08;;;;;;;13.32;73.01;102127.75;5034379;28;20029;-63
2021/09/23 01:28:05;;;;;;;30.20;17.40;;;;;;;13.36;72.92;102124.81;5033454;28;20152;-63
2021/09/23 01:30:31;;;;;;;30.88;17.77;;;;;;;13.35;72.69;102125.78;5034019;28;20072;-63
2021/09/23 01:32:57;;;;;;;32.58;17.00;;;;;;;13.35;72.90;102121.41;5016288;28;20029;-64
2021/09/23 01:35:22;;;;;;;33.13;16.98;;;;;;;13.31;72.82;102109.75;5034240;28;20021;-63
2021/09/23 01:37:48;;;;;;;32.47;16.70;;;;;;;13.35;72.69;102107.59;5016262;28;20127;-64
2021/09/23 01:40:13;;;;;;;38.35;17.95;;;;;;;13.27;73.32;102109.28;5033988;28;20376;-63
2021/09/23 01:42:42;;;;;;;36.10;17.30;;;;;;;13.23;73.46;102100.19;5016352;28;20025;-62
2021/09/23 01:45:08;;;;;;;36.38;17.70;;;;;;;13.31;73.02;102104.56;5016499;28;20041;-64
2021/09/23 01:47:33;;;;;;;36.65;17.40;;;;;;;13.27;73.25;102088.53;5033815;28;20041;-64
2021/09/23 01:50:00;;;;;;;40.22;17.20;;;;;;;13.35;73.15;102090.25;5016055;28;20029;-63
2021/09/23 01:52:25;;;;;;;30.92;17.35;;;;;;;13.39;72.76;102091.53;5016104;28;20029;-64
2021/09/23 01:54:51;;;;;;;31.77;16.95;;;;;;;13.35;72.80;102079.03;5033691;28;20464;-63
2021/09/23 01:57:17;;;;;;;33.28;17.17;;;;;;;13.35;72.72;102069.50;5012841;28;20045;-63
2021/09/23 01:59:42;;;;;;;31.25;17.10;;;;;;;13.36;72.67;102065.09;5014604;28;20034;-63
2021/09/23 02:02:07;;;;;;;28.60;16.60;;;;;;;13.24;73.29;102062.06;5014272;28;20022;-62
2021/09/23 02:04:32;;;;;;;35.90;18.17;;;;;;;13.29;72.97;102063.22;5014190;28;20326;-63
2021/09/23 02:06:58;;;;;;;31.75;17.65;;;;;;;13.35;72.85;102061.72;5014194;28;20354;-63
2021/09/23 02:09:23;;;;;;;34.90;17.73;;;;;;;13.35;72.76;102055.69;5014195;28;20029;-64
2021/09/23 02:11:48;;;;;;;35.22;17.27;;;;;;;13.37;72.63;102045.94;5014027;28;20021;-63
2021/09/23 02:14:13;;;;;;;34.45;17.88;;;;;;;13.31;73.15;102044.84;5014076;28;20037;-64
2021/09/23 02:16:39;;;;;;;35.63;18.90;;;;;;;13.29;73.21;102036.41;5014004;28;20473;-63
2021/09/23 02:19:04;;;;;;;34.63;18.30;;;;;;;13.25;73.49;102030.78;5013999;28;20029;-64
2021/09/23 02:21:30;;;;;;;40.10;19.17;;;;;;;13.21;74.13;102032.06;5013899;28;20025;-63
2021/09/23 02:23:55;;;;;;;33.33;19.30;;;;;;;13.22;73.80;102020.69;5012622;28;20021;-63
2021/09/23 02:26:20;;;;;;;33.25;19.15;;;;;;;13.28;73.38;102014.84;5012647;28;20036;-63
2021/09/23 02:28:46;;;;;;;41.50;19.15;;;;;;;13.24;73.83;102017.94;5013846;28;20031;-63
2021/09/23 02:31:11;;;;;;;35.67;19.33;;;;;;;13.13;74.63;102013.16;5013775;28;20040;-64
2021/09/23 02:33:36;;;;;;;39.20;19.88;;;;;;;13.08;74.77;102009.28;5013850;28;20018;-63
2021/09/23 02:36:03;;;;;;;36.88;19.40;;;;;;;13.13;74.49;102010.56;5012503;28;20033;-63
2021/09/23 02:38:28;;;;;;;40.85;21.10;;;;;;;13.13;74.60;102010.56;5013798;28;20026;-63
2021/09/23 02:40:55;;;;;;;39.28;20.38;;;;;;;13.03;75.12;102006.41;5013655;28;20026;-63
2021/09/23 02:43:20;;;;;;;41.63;21.00;;;;;;;13.05;75.38;102001.84;5012370;28;20049;-64
2021/09/23 02:45:45;;;;;;;45.42;20.90;;;;;;;13.01;75.23;102000.59;5014286;28;20025;-63
2021/09/23 02:48:11;;;;;;;41.45;21.38;;;;;;;13.04;75.67;102000.25;5014266;28;20125;-63
2021/09/23 02:50:36;;;;;;;40.70;21.60;;;;;;;13.00;76.00;102000.75;5013598;28;20037;-64
2021/09/23 02:53:01;;;;;;;38.10;20.98;;;;;;;13.04;75.49;101996.84;5013623;28;20358;-64
2021/09/23 02:55:26;;;;;;;41.20;21.23;;;;;;;12.99;75.74;101996.56;5013527;28;20030;-63
2021/09/23 02:57:52;;;;;;;38.30;20.40;;;;;;;13.03;76.21;101995.22;5026099;28;20068;-63
2021/09/23 03:00:18;;;;;;;45.00;20.77;;;;;;;13.05;76.03;101996.66;5033631;28;20032;-63
2021/09/23 03:02:44;;;;;;;38.17;21.83;;;;;;;13.04;75.98;101992.47;5015448;28;20026;-63
2021/09/23 03:05:09;;;;;;;40.70;20.98;;;;;;;13.13;75.78;101993.19;5015438;28;20074;-63
2021/09/23 03:07:34;;;;;;;41.60;21.95;;;;;;;12.90;76.79;101989.81;5033408;28;20026;-63
2021/09/23 03:10:00;;;;;;;43.85;21.27;;;;;;;13.00;76.84;101980.78;5033084;28;20414;-63
2021/09/23 03:12:25;;;;;;;42.03;21.52;;;;;;;13.03;76.47;101985.66;5033183;28;20029;-63
2021/09/23 03:14:50;;;;;;;43.67;22.17;;;;;;;13.02;76.72;101973.66;5033103;28;20368;-63
2021/09/23 03:17:16;;;;;;;40.47;21.73;;;;;;;12.98;77.19;101962.00;5033067;28;20032;-63
2021/09/23 03:19:41;;;;;;;42.22;21.67;;;;;;;12.94;77.16;101952.94;5033041;28;20361;-63
2021/09/23 03:22:06;;;;;;;40.22;22.15;;;;;;;12.92;77.54;101967.06;5033003;28;20017;-63
2021/09/23 03:24:31;;;;;;;56.15;26.45;;;;;;;12.91;78.05;101949.91;5032964;28;20025;-63
2021/09/23 03:26:57;;;;;;;41.17;21.73;;;;;;;12.93;77.55;101955.72;5033383;28;20034;-63
2021/09/23 03:32:44;;;;;;;37.10;21.45;;;;;;;12.83;78.16;101961.13;5033019;28;20074;-63
2021/09/23 03:35:09;;;;;;;41.95;21.88;;;;;;;12.85;78.63;101957.38;5015229;28;20473;-64
2021/09/23 03:37:35;;;;;;;44.33;22.13;;;;;;;12.79;78.99;101958.09;5033192;28;20160;-64
2021/09/23 03:40:00;;;;;;;39.47;22.80;;;;;;;12.82;79.03;101960.34;5032704;28;20033;-63
2021/09/23 03:42:26;;;;;;;47.17;22.90;;;;;;;12.81;79.05;101965.72;5033442;28;20018;-64
2021/09/23 03:44:51;;;;;;;42.85;21.98;;;;;;;12.83;79.12;101961.13;5015131;28;20083;-64
2021/09/23 03:47:16;;;;;;;42.78;22.90;;;;;;;12.84;79.17;101962.75;5032906;28;20065;-63
2021/09/23 03:49:42;;;;;;;43.42;22.55;;;;;;;12.77;79.73;101961.81;5033017;28;20404;-63
2021/09/23 03:52:07;;;;;;;36.67;23.00;;;;;;;12.81;79.46;101958.72;5016234;28;20029;-63
2021/09/23 03:54:32;;;;;;;41.45;23.23;;;;;;;12.80;79.53;101959.72;5036352;28;20029;-63
2021/09/23 03:56:58;;;;;;;44.33;22.92;;;;;;;12.76;80.16;101953.25;5036269;28;20544;-63
2021/09/23 03:59:23;;;;;;;41.78;23.50;;;;;;;12.80;80.29;101958.88;5018443;28;20030;-64
2021/09/23 04:01:49;;;;;;;40.45;22.63;;;;;;;12.84;80.33;101965.38;5018523;28;20018;-63
2021/09/23 04:04:15;;;;;;;44.65;24.02;;;;;;;12.82;80.46;101967.31;5036195;28;20025;-63
2021/09/23 04:06:43;;;;;;;42.15;24.00;;;;;;;12.79;80.92;101965.06;5018388;28;20491;-63
2021/09/23 04:09:12;;;;;;;47.28;24.15;;;;;;;12.75;81.24;101963.81;5036331;28;20034;-63
2021/09/23 04:11:39;;;;;;;44.17;23.50;;;;;;;12.79;80.90;101962.47;5035978;28;20028;-63
2021/09/23 04:14:06;;;;;;;45.10;24.20;;;;;;;12.77;80.95;101957.44;5018327;28;20026;-64
2021/09/23 04:16:32;;;;;;;41.63;24.42;;;;;;;12.74;81.70;101950.00;5036239;28;20025;-63
2021/09/23 04:18:58;;;;;;;45.63;24.83;;;;;;;12.76;81.33;101944.66;5018213;28;20037;-63
2021/09/23 04:21:23;;;;;;;51.38;25.27;;;;;;;12.79;82.10;101937.34;5035899;28;20376;-64
2021/09/23 04:23:48;;;;;;;44.80;24.42;;;;;;;12.67;82.60;101935.31;5035820;28;20104;-64
2021/09/23 04:26:13;;;;;;;42.97;24.83;;;;;;;12.71;82.61;101931.41;5035892;28;20076;-63
2021/09/23 04:28:39;;;;;;;49.20;25.98;;;;;;;12.70;82.51;101920.22;5035874;28;20029;-63
2021/09/23 04:31:04;;;;;;;45.45;25.77;;;;;;;12.62;82.78;101915.09;5017978;28;20033;-62
2021/09/23 04:33:29;;;;;;;48.55;25.55;;;;;;;12.62;83.11;101908.09;5035698;28;20041;-62
2021/09/23 04:35:55;;;;;;;45.97;25.42;;;;;;;12.67;82.79;101899.03;5017938;28;20028;-62
2021/09/23 04:38:20;;;;;;;45.67;26.17;;;;;;;12.53;83.85;101898.78;5017905;28;20454;-63
2021/09/23 04:40:46;;;;;;;48.42;26.92;;;;;;;12.54;84.36;101894.38;5035621;28;20053;-62
2021/09/23 04:43:11;;;;;;;48.58;26.75;;;;;;;12.53;84.26;101885.81;5035543;28;20431;-62
2021/09/23 04:45:37;;;;;;;51.88;27.42;;;;;;;12.52;84.33;101878.22;5018228;28;20125;-62
2021/09/23 04:48:03;;;;;;;47.60;26.35;;;;;;;12.56;84.33;101874.28;5035408;28;20476;-63
2021/09/23 04:50:28;;;;;;;48.95;27.05;;;;;;;12.58;84.54;101872.34;5017430;28;20029;-62
2021/09/23 04:52:53;;;;;;;54.20;26.80;;;;;;;12.56;84.63;101867.31;5017584;28;20112;-63
2021/09/23 04:55:18;;;;;;;49.28;27.30;;;;;;;12.53;84.87;101857.28;5035272;28;20584;-62
2021/09/23 04:57:44;;;;;;;49.97;28.33;;;;;;;12.56;85.40;101856.94;5017088;28;20052;-62
2021/09/23 05:00:10;;;;;;;56.20;28.73;;;;;;;12.57;85.47;101855.97;5035124;28;20018;-62
2021/09/23 05:02:35;;;;;;;52.28;28.98;;;;;;;12.56;85.65;101862.13;5034960;28;20033;-63
2021/09/23 05:05:00;;;;;;;51.13;28.67;;;;;;;12.61;85.67;101870.19;5034512;28;20021;-62
2021/09/23 05:07:26;;;;;;;52.22;28.75;;;;;;;12.62;85.81;101865.81;5035102;28;20025;-63
2021/09/23 05:09:51;;;;;;;62.40;29.98;;;;;;;12.64;85.80;101867.25;5017236;28;20033;-62
2021/09/23 05:12:17;;;;;;;58.42;30.85;;;;;;;12.70;85.98;101862.38;5034881;28;20492;-63
2021/09/23 05:14:42;;;;;;;54.85;30.35;;;;;;;12.73;85.61;101862.00;5017094;28;20025;-63
2021/09/23 05:17:07;;;;;;;54.08;29.83;;;;;;;12.74;85.67;101846.25;5034823;28;20029;-62
2021/09/23 05:19:32;;;;;;;57.40;30.98;;;;;;;12.77;85.81;101847.69;5034995;28;20033;-62
2021/09/23 05:21:58;;;;;;;59.00;32.13;;;;;;;12.78;86.37;101844.16;5034797;28;20026;-63
2021/09/23 05:24:23;;;;;;;62.53;32.13;;;;;;;12.80;86.75;101844.75;5034721;28;20029;-63
2021/09/23 05:26:48;;;;;;;58.33;32.50;;;;;;;12.81;86.71;101841.19;5016838;28;20030;-62
2021/09/23 05:29:14;;;;;;;65.80;33.33;;;;;;;12.77;86.88;101843.31;5017187;28;20476;-63
2021/09/23 05:31:39;;;;;;;62.42;32.60;;;;;;;12.79;87.34;101835.38;5034780;28;20025;-63
2021/09/23 05:34:04;;;;;;;64.22;33.92;;;;;;;12.85;87.10;101837.25;5034499;28;20029;-63
2021/09/23 05:36:29;;;;;;;64.32;33.83;;;;;;;12.95;86.38;101842.22;5034567;28;20021;-63
2021/09/23 05:38:59;;;;;;;67.60;34.22;;;;;;;12.92;86.77;101835.59;5016694;28;20064;-63
2021/09/23 05:41:28;;;;;;;61.30;32.83;;;;;;;13.07;86.35;101839.00;5016688;28;20021;-62
2021/09/23 05:43:53;;;;;;;69.22;34.80;;;;;;;12.93;86.40;101833.78;5034411;28;20071;-64
2021/09/23 05:46:18;;;;;;;63.22;33.97;;;;;;;12.83;87.01;101840.03;5034674;28;20155;-64
2021/09/23 05:48:44;;;;;;;64.90;34.42;;;;;;;12.99;86.57;101833.09;5034159;28;20029;-64
2021/09/23 05:51:09;;;;;;;67.55;34.42;;;;;;;12.99;86.15;101831.28;5017047;28;20048;-63
2021/09/23 05:53:34;;;;;;;66.85;34.55;;;;;;;13.11;86.05;101839.44;5034006;28;20048;-63
2021/09/23 05:56:00;;;;;;;71.35;35.10;;;;;;;13.24;85.50;101844.84;5034712;28;20025;-63
2021/09/23 05:58:25;;;;;;;71.60;34.17;;;;;;;13.20;85.63;101847.94;5034984;28;20057;-64
2021/09/23 06:00:50;;;;;;;63.53;33.28;;;;;;;13.33;85.50;101850.78;5033929;28;20026;-64
2021/09/23 06:03:16;;;;;;;74.63;33.47;;;;;;;13.47;84.35;101842.19;5016098;28;20384;-64
2021/09/23 06:05:42;;;;;;;65.13;33.30;;;;;;;13.59;84.37;101836.53;5033992;28;20021;-65
2021/09/23 06:08:07;;;;;;;68.70;33.08;;;;;;;13.66;84.10;101838.19;5016110;28;20032;-64
2021/09/23 06:10:32;;;;;;;64.93;33.75;;;;;;;13.69;84.17;101848.22;5033702;28;20033;-63
2021/09/23 06:12:57;;;;;;;62.17;32.08;;;;;;;13.88;83.53;101839.06;5016014;28;20029;-63
2021/09/23 06:15:23;;;;;;;61.83;33.60;;;;;;;14.18;82.47;101831.19;5033393;28;20067;-64
2021/09/23 06:17:48;;;;;;;65.68;33.45;;;;;;;13.95;83.39;101828.75;5033523;28;20025;-64
2021/09/23 06:20:14;;;;;;;60.70;33.45;;;;;;;14.02;83.39;101826.22;5033666;28;20029;-64
2021/09/23 06:22:39;;;;;;;62.67;32.83;;;;;;;13.97;83.99;101819.78;5033652;28;20036;-64
2021/09/23 06:25:06;;;;;;;62.75;33.90;;;;;;;13.87;84.49;101821.88;5015903;28;20033;-64
2021/09/23 06:27:32;;;;;;;61.35;33.28;;;;;;;13.90;84.63;101811.13;5033463;28;20021;-64
2021/09/23 06:29:57;;;;;;;62.55;33.83;;;;;;;14.06;84.29;101828.25;5015803;28;20036;-63
2021/09/23 06:32:22;;;;;;;64.10;32.80;;;;;;;14.16;83.52;101826.19;5015739;28;20029;-64
2021/09/23 06:34:48;;;;;;;63.78;32.40;;;;;;;14.30;83.02;101821.91;5033487;28;20049;-64
2021/09/23 06:37:13;;;;;;;61.22;32.30;;;;;;;14.32;83.10;101832.13;5033453;28;20032;-64
2021/09/23 06:39:40;;;;;;;62.70;31.00;;;;;;;14.36;83.19;101823.78;5033304;28;20383;-64
2021/09/23 06:42:06;;;;;;;59.15;31.15;;;;;;;14.41;83.06;101824.03;5019098;28;20051;-65
2021/09/23 06:44:31;;;;;;;57.95;31.80;;;;;;;14.43;83.29;101813.41;5033226;28;20025;-64
2021/09/23 06:46:56;;;;;;;62.13;32.72;;;;;;;14.25;84.13;101811.25;5033347;28;20111;-64
2021/09/23 06:49:23;;;;;;;50.30;30.13;;;;;;;14.61;82.75;101805.19;5015535;28;20025;-64
2021/09/23 06:51:50;;;;;;;55.13;31.02;;;;;;;14.61;82.82;101810.38;5033445;28;20026;-64
2021/09/23 06:57:37;;;;;;;60.38;31.10;;;;;;;15.06;81.11;101787.47;5032390;28;20457;-65
2021/09/23 07:00:04;;;;;;;53.10;30.08;;;;;;;15.04;81.02;101774.66;5015360;28;20124;-64
2021/09/23 07:02:29;;;;;;;54.80;30.63;;;;;;;14.80;82.58;101775.91;5033234;28;20543;-65
2021/09/23 07:04:55;;;;;;;56.25;28.67;;;;;;;15.49;79.36;101782.88;5015514;28;20025;-65
2021/09/23 07:07:20;;;;;;;54.72;30.00;;;;;;;15.46;79.49;101777.25;5033093;28;20448;-64
2021/09/23 07:09:46;;;;;;;56.08;29.50;;;;;;;15.78;78.05;101768.75;5033245;28;20030;-65
2021/09/23 07:12:13;;;;;;;51.22;28.67;;;;;;;16.04;78.03;101763.78;5015399;28;20021;-65
2021/09/23 07:14:38;;;;;;;52.88;29.08;;;;;;;16.09;77.23;101756.19;5034408;28;20080;-65
2021/09/23 07:17:04;;;;;;;51.10;29.02;;;;;;;16.09;77.27;101750.97;5016172;28;20017;-64
2021/09/23 07:19:30;;;;;;;50.42;28.48;;;;;;;16.06;77.66;101746.16;5033092;28;20061;-65
2021/09/23 07:21:56;;;;;;;50.92;26.77;;;;;;;19.80;64.54;101747.66;5015306;28;20108;-65
2021/09/23 07:24:23;;;;;;;38.72;24.00;;;;;;;21.68;58.32;101751.06;5015118;28;20026;-65
2021/09/23 07:26:48;;;;;;;40.28;23.58;;;;;;;21.59;57.61;101730.41;5034413;28;20112;-65
2021/09/23 07:29:15;;;;;;;32.50;21.63;;;;;;;21.20;59.61;101732.03;5036865;28;20108;-66
2021/09/23 07:31:41;;;;;;;34.28;22.00;;;;;;;21.80;57.24;101728.09;5019179;28;20025;-66
2021/09/23 07:34:06;;;;;;;33.22;21.35;;;;;;;22.46;55.54;101728.31;5036683;28;20021;-67
2021/09/23 07:36:32;;;;;;;30.00;21.05;;;;;;;23.07;53.48;101731.69;5036723;28;20534;-66
2021/09/23 07:38:58;;;;;;;31.20;19.52;;;;;;;22.43;55.20;101729.59;5037160;28;20029;-66
2021/09/23 07:41:24;;;;;;;29.38;19.92;;;;;;;23.27;52.96;101725.03;5036594;28;20018;-66
2021/09/23 07:43:49;;;;;;;35.13;20.30;;;;;;;22.77;53.81;101724.22;5036468;28;20039;-65
2021/09/23 07:46:14;;;;;;;27.92;18.10;;;;;;;23.83;51.41;101726.34;5036608;28;20032;-66
2021/09/23 07:48:40;;;;;;;27.20;18.25;;;;;;;24.48;49.79;101734.16;5036456;28;20068;-66
2021/09/23 07:51:05;;;;;;;25.25;16.63;;;;;;;24.88;49.67;101743.31;5036355;28;20094;-66
2021/09/23 07:53:32;;;;;;;28.60;17.35;;;;;;;24.43;49.74;101739.44;5036433;28;20032;-66
2021/09/23 07:59:25;;;;;;;27.33;17.27;;;;;;;24.82;49.21;101753.06;5026518;28;20040;-66
2021/09/23 08:01:50;;;;;;;26.35;16.80;;;;;;;24.13;50.50;101751.38;5018521;28;20033;-66
2021/09/23 08:04:16;;;;;;;24.23;15.23;;;;;;;20.33;60.89;101761.75;5036697;28;20033;-66
2021/09/23 08:06:41;;;;;;;27.33;17.00;;;;;;;19.24;65.37;101759.25;5018322;28;20635;-65
2021/09/23 08:09:07;;;;;;;26.70;16.45;;;;;;;18.57;67.34;101764.41;5018328;28;20044;-64
2021/09/23 08:11:32;;;;;;;31.08;17.15;;;;;;;18.26;69.75;101767.91;5036278;28;20044;-65
2021/09/23 08:13:58;;;;;;;30.95;19.70;;;;;;;18.06;70.45;101773.28;5035945;28;20022;-65
2021/09/23 08:16:23;;;;;;;29.02;18.70;;;;;;;17.65;72.21;101789.41;5035782;28;20387;-64
2021/09/23 08:18:48;;;;;;;32.25;19.65;;;;;;;17.82;71.11;101787.94;5035939;28;20464;-64
2021/09/23 08:21:13;;;;;;;35.47;19.42;;;;;;;18.26;69.83;101794.84;5036166;28;20029;-65
2021/09/23 08:23:39;;;;;;;37.42;18.83;;;;;;;18.04;70.41;101780.56;5035782;28;20029;-64
2021/09/23 08:26:04;;;;;;;39.17;20.67;;;;;;;17.96;71.49;101780.81;5035794;28;20380;-65
2021/09/23 08:28:32;;;;;;;36.35;19.80;;;;;;;17.44;73.44;101772.22;5036233;28;20361;-65
2021/09/23 08:30:58;;;;;;;31.33;17.60;;;;;;;17.46;72.45;101768.38;5018273;28;20029;-67
2021/09/23 08:33:24;;;;;;;32.85;18.17;;;;;;;17.40;73.78;101773.63;5035728;28;20025;-64
2021/09/23 08:35:49;;;;;;;27.77;15.48;;;;;;;17.64;72.30;101779.97;5035631;28;20523;-64
2021/09/23 08:38:19;;;;;;;28.67;16.65;;;;;;;17.56;72.65;101783.63;5035363;28;20053;-64
2021/09/23 08:40:47;;;;;;;30.33;17.63;;;;;;;17.59;73.70;101784.00;5035467;28;20017;-64
2021/09/23 08:43:13;;;;;;;28.88;15.48;;;;;;;17.56;72.86;101778.41;5035405;28;20433;-64
2021/09/23 08:45:38;;;;;;;26.45;14.05;;;;;;;17.60;73.08;101769.09;5035362;28;20079;-65
2021/09/23 08:48:04;;;;;;;16.30;8.02;;;;;;;17.75;71.39;101772.25;5035336;28;20029;-66
2021/09/23 08:50:29;;;;;;;12.35;5.18;;;;;;;18.05;69.74;101766.47;5035311;28;20084;-65
2021/09/23 08:52:55;;;;;;;13.65;4.90;;;;;;;22.41;55.24;101768.56;5035267;28;20428;-65
2021/09/23 08:58:41;;;;;;;8.50;3.60;;;;;;;21.57;55.61;101755.34;5035225;28;20052;-65
2021/09/23 09:01:09;;;;;;;11.55;3.45;;;;;;;22.91;51.52;101757.06;5035557;28;20026;-65
2021/09/23 09:03:36;;;;;;;9.10;3.22;;;;;;;24.90;47.06;101762.34;5035355;28;20032;-65
2021/09/23 09:06:05;;;;;;;10.50;3.08;;;;;;;23.60;48.41;101760.97;5035378;28;20457;-65
2021/09/23 09:08:32;;;;;;;8.75;2.67;;;;;;;22.07;53.25;101765.13;5017321;28;20022;-64
2021/09/23 09:11:00;;;;;;;9.57;2.58;;;;;;;22.27;52.29;101772.56;5035224;28;20202;-65
2021/09/23 09:13:37;;;;;;;9.32;3.00;;;;;;;20.37;57.08;101776.03;5035309;28;20108;-65
2021/09/23 09:16:08;;;;;;;11.25;2.80;;;;;;;19.56;61.25;101753.81;5017111;28;20139;-66
2021/09/23 09:18:34;;;;;;;7.20;2.65;;;;;;;22.02;52.73;101751.88;5017174;28;20488;-65
2021/09/23 09:21:02;;;;;;;9.35;2.88;;;;;;;20.24;57.64;101753.41;5035156;28;20032;-64
2021/09/23 09:23:39;;;;;;;10.15;2.88;;;;;;;19.24;60.70;101750.59;5016963;28;20040;-65
2021/09/23 09:26:04;;;;;;;9.63;2.58;;;;;;;19.40;61.13;101757.88;5017045;28;20401;-65
2021/09/23 09:28:30;;;;;;;12.60;2.92;;;;;;;19.13;62.44;101762.63;5016917;28;20044;-65
2021/09/23 09:30:57;;;;;;;8.98;2.33;;;;;;;18.83;62.29;101758.13;5034499;28;20061;-64
2021/09/23 09:33:33;;;;;;;7.30;2.83;;;;;;;20.05;59.13;101762.41;5034537;28;20030;-64
2021/09/23 09:35:59;;;;;;;8.18;2.80;;;;;;;19.33;60.69;101765.00;5034552;28;20100;-64
2021/09/23 09:38:26;;;;;;;10.45;2.80;;;;;;;21.32;55.42;101763.53;5016681;28;20421;-64
2021/09/23 09:40:54;;;;;;;10.80;2.80;;;;;;;20.39;57.78;101771.31;5034698;28;20483;-64
2021/09/23 09:43:21;;;;;;;7.90;2.55;;;;;;;19.88;58.72;101764.06;5034201;28;20049;-64
2021/09/23 09:45:47;;;;;;;10.73;2.63;;;;;;;19.51;59.25;101767.59;5034283;28;20025;-64
2021/09/23 09:48:13;;;;;;;8.40;2.85;;;;;;;19.55;59.76;101765.34;5034437;28;20022;-64
2021/09/23 09:50:42;;;;;;;9.15;3.17;;;;;;;19.72;59.55;101766.31;5033478;28;20033;-64
2021/09/23 09:53:10;;;;;;;11.07;2.80;;;;;;;19.60;59.49;101773.34;5034151;28;20100;-65
2021/09/23 09:55:41;;;;;;;5.68;2.53;;;;;;;19.39;60.33;101772.81;5034148;28;20104;-65
2021/09/23 09:58:08;;;;;;;7.95;2.67;;;;;;;19.19;61.39;101774.03;5034213;28;20032;-64
2021/09/23 10:00:35;;;;;;;10.00;2.70;;;;;;;19.39;60.55;101782.47;5034010;28;20025;-65
2021/09/23 10:03:00;;;;;;;7.47;2.95;;;;;;;19.74;58.48;101789.72;5033865;28;20111;-64
2021/09/23 10:05:27;;;;;;;12.30;2.88;;;;;;;19.29;59.76;101775.13;5016224;28;20492;-65
2021/09/23 10:07:54;;;;;;;8.65;2.75;;;;;;;19.37;60.20;101766.19;5033792;28;20025;-64
2021/09/23 10:10:29;;;;;;;13.70;2.90;;;;;;;19.74;59.76;101764.28;5015976;28;20036;-65
2021/09/23 10:13:00;;;;;;;8.73;2.50;;;;;;;20.10;58.61;101765.16;5033707;28;20033;-64
2021/09/23 10:15:25;;;;;;;13.52;2.50;;;;;;;19.81;59.00;101764.97;5033784;28;20083;-63
2021/09/23 10:17:55;;;;;;;7.95;2.78;;;;;;;19.71;59.47;101759.50;5016051;28;20531;-66
2021/09/23 10:20:23;;;;;;;9.23;2.80;;;;;;;19.88;59.40;101764.06;5033550;28;20575;-66
2021/09/23 10:22:49;;;;;;;9.10;2.55;;;;;;;20.64;57.14;101763.25;5033358;28;20029;-66
2021/09/23 10:25:19;;;;;;;6.38;2.50;;;;;;;20.64;56.55;101763.25;5033574;28;20362;-66
2021/09/23 10:28:03;;;;;;;9.20;2.45;;;;;;;20.93;56.46;101761.47;5033615;28;20080;-66
2021/09/23 10:30:42;;;;;;;10.07;2.90;;;;;;;21.42;54.33;101768.22;5015862;28;20032;-66
2021/09/23 10:33:08;;;;;;;8.30;2.35;;;;;;;21.50;55.69;101760.75;5033473;28;20029;-65
2021/09/23 10:35:35;;;;;;;7.50;2.50;;;;;;;21.72;54.20;101749.53;5015612;28;20026;-67
2021/09/23 10:38:04;;;;;;;10.05;2.25;;;;;;;22.14;51.95;101734.16;5033303;28;20040;-65
2021/09/23 10:40:31;;;;;;;7.00;2.20;;;;;;;21.70;53.00;101730.59;5015722;28;20025;-65
2021/09/23 10:43:01;;;;;;;5.97;2.08;;;;;;;21.48;53.68;101741.78;5015697;28;20024;-66
2021/09/23 10:45:27;;;;;;;6.90;2.20;;;;;;;21.83;52.98;101722.34;5033378;28;20080;-66
2021/09/23 10:48:00;;;;;;;7.15;2.10;;;;;;;22.28;51.56;101732.81;5033322;28;20021;-65
2021/09/23 10:50:31;;;;;;;6.13;2.20;;;;;;;23.06;49.91;101731.94;5033200;28;20060;-66
2021/09/23 10:52:58;;;;;;;6.00;2.00;;;;;;;23.37;50.54;101731.22;5015428;28;20041;-67
2021/09/23 10:55:25;;;;;;;7.57;2.08;;;;;;;22.80;50.48;101739.53;5033144;28;20033;-65
2021/09/23 10:57:55;;;;;;;4.80;2.15;;;;;;;23.04;49.06;101715.59;5015473;28;20029;-66
2021/09/23 11:00:25;;;;;;;7.22;1.83;;;;;;;23.57;48.33;101719.25;5033242;28;20388;-67
2021/09/23 11:02:52;;;;;;;9.27;2.10;;;;;;;23.58;48.67;101723.47;5037299;28;20033;-65
2021/09/23 11:05:20;;;;;;;6.53;2.50;;;;;;;22.84;49.59;101716.91;5037667;28;20098;-66
2021/09/23 11:07:47;;;;;;;10.82;2.25;;;;;;;22.32;51.27;101714.69;5037168;28;20025;-66
2021/09/23 11:10:24;;;;;;;7.40;2.00;;;;;;;22.56;50.85;101706.56;5019424;28;20058;-65
2021/09/23 11:12:52;;;;;;;17.58;2.78;;;;;;;22.91;50.13;101707.00;5037788;28;20029;-66
2021/09/23 11:18:41;;;;;;;11.40;2.55;;;;;;;21.50;54.29;101694.22;5037525;28;20434;-66
2021/09/23 11:21:10;;;;;;;9.18;2.45;;;;;;;21.56;54.02;101690.63;5019236;28;20059;-66
2021/09/23 11:23:37;;;;;;;10.27;2.60;;;;;;;21.11;55.00;101692.19;5019201;28;20022;-65
2021/09/23 11:26:03;;;;;;;7.75;2.70;;;;;;;21.18;54.97;101679.72;5036837;28;20123;-65